Time;durP1;ratioP1;P1;durP2;ratioP2;P2;SDS_P1;SDS_P2;PMS_P1;PMS_P2;Temp;Humidity;BMP_temperature;BMP_pressure;BME280_temperature;BME280_humidity;BME280_pressure;Samples;Min_cycle;Max_cycle;Signal;HPM_P1;HPM_P2
2023/09/28 00:01:37;;;;;;;0.20;0.20;;;;;;;14.42;80.43;97670.53;4989435;28;20107;-71
2023/09/28 00:04:06;;;;;;;0.20;0.20;;;;;;;14.53;79.84;97677.09;4994716;28;20043;-71
2023/09/28 00:06:34;;;;;;;0.10;0.10;;;;;;;14.62;79.39;97670.41;4983140;28;20042;-73
2023/09/28 00:09:01;;;;;;;0.20;0.20;;;;;;;14.52;79.94;97675.44;4989772;28;20046;-74
2023/09/28 00:11:29;;;;;;;0.17;0.17;;;;;;;14.55;79.52;97678.50;4994912;28;20045;-72
2023/09/28 00:13:56;;;;;;;0.10;0.10;;;;;;;14.53;78.94;97683.28;4986995;28;20689;-72
2023/09/28 00:16:24;;;;;;;0.30;0.30;;;;;;;14.55;78.92;97675.81;4978907;28;20060;-72
2023/09/28 00:18:52;;;;;;;0.13;0.13;;;;;;;14.36;78.76;97684.78;4992417;28;20117;-72
2023/09/28 00:21:20;;;;;;;0.20;0.20;;;;;;;14.20;79.15;97680.78;4986508;28;20039;-73
2023/09/28 00:23:49;;;;;;;0.17;0.17;;;;;;;14.08;79.79;97678.97;4990155;28;20052;-71
2023/09/28 00:26:16;;;;;;;0.20;0.13;;;;;;;14.16;79.35;97676.84;4982322;28;20482;-72
2023/09/28 00:28:45;;;;;;;0.10;0.10;;;;;;;14.26;78.93;97676.38;4986937;28;20047;-71
2023/09/28 00:31:13;;;;;;;0.17;0.17;;;;;;;14.25;79.36;97678.25;4983386;28;20039;-72
2023/09/28 00:33:42;;;;;;;0.20;0.20;;;;;;;14.30;79.10;97678.44;4989891;28;20557;-70
2023/09/28 00:36:10;;;;;;;0.20;0.20;;;;;;;14.27;78.93;97686.91;5005488;28;20046;-73
2023/09/28 00:38:38;;;;;;;0.20;0.20;;;;;;;14.25;78.66;97682.78;4983433;28;20142;-71
2023/09/28 00:41:05;;;;;;;0.20;0.20;;;;;;;14.29;78.41;97679.47;5004495;28;20054;-72
2023/09/28 00:43:34;;;;;;;0.20;0.20;;;;;;;14.21;78.48;97677.06;5004222;28;20046;-71
2023/09/28 00:46:03;;;;;;;0.30;0.30;;;;;;;14.14;78.83;97672.72;4986065;28;20049;-71
2023/09/28 00:48:30;;;;;;;0.10;0.10;;;;;;;14.17;78.61;97669.63;4976874;28;20070;-72
2023/09/28 00:50:59;;;;;;;0.10;0.10;;;;;;;14.18;78.54;97674.78;4973086;28;20043;-73
2023/09/28 00:53:29;;;;;;;0.20;0.20;;;;;;;13.82;79.18;97682.59;4976188;28;20380;-71
2023/09/28 00:55:58;;;;;;;0.20;0.20;;;;;;;13.95;78.90;97679.84;4991195;28;20042;-72
2023/09/28 00:58:25;;;;;;;0.10;0.10;;;;;;;13.95;78.81;97690.59;5009031;28;20250;-72
2023/09/28 01:00:52;;;;;;;0.15;0.15;;;;;;;14.14;78.19;97689.66;4989427;28;20511;-70
2023/09/28 01:03:20;;;;;;;0.20;0.20;;;;;;;13.88;79.59;97696.00;4981911;28;20039;-72
2023/09/28 01:05:48;;;;;;;0.20;0.20;;;;;;;13.77;80.37;97698.53;4987023;28;20121;-71
2023/09/28 01:08:18;;;;;;;0.20;0.20;;;;;;;13.64;80.79;97694.00;4990807;28;20055;-71
2023/09/28 01:10:47;;;;;;;0.13;0.13;;;;;;;13.56;80.72;97694.25;4980920;28;20061;-70
2023/09/28 01:13:20;;;;;;;0.20;0.20;;;;;;;13.47;80.70;97693.66;4988747;28;20073;-73
2023/09/28 01:15:49;;;;;;;0.10;0.10;;;;;;;13.34;80.57;97700.91;4973862;28;20038;-71
2023/09/28 01:18:18;;;;;;;0.15;0.15;;;;;;;13.31;80.14;97694.09;4984783;28;20035;-72
2023/09/28 01:20:46;;;;;;;0.20;0.20;;;;;;;13.26;79.95;97693.09;4997913;28;20046;-71
2023/09/28 01:23:16;;;;;;;0.17;0.17;;;;;;;13.30;80.28;97694.31;4988522;28;20039;-73
2023/09/28 01:25:46;;;;;;;0.30;0.30;;;;;;;13.30;80.11;97695.13;4985383;28;20045;-73
2023/09/28 01:28:16;;;;;;;0.20;0.20;;;;;;;13.29;79.98;97695.38;4984739;28;20046;-71
2023/09/28 01:30:44;;;;;;;0.20;0.20;;;;;;;13.23;80.23;97697.00;4998951;28;20046;-72
2023/09/28 01:33:12;;;;;;;0.30;0.30;;;;;;;13.18;80.52;97686.09;5002540;28;20039;-72
2023/09/28 01:35:40;;;;;;;0.10;0.10;;;;;;;13.21;80.40;97689.16;5001790;28;20043;-71
2023/09/28 01:38:14;;;;;;;0.17;0.17;;;;;;;13.24;80.44;97687.94;4991336;28;20055;-72
2023/09/28 01:40:44;;;;;;;0.10;0.10;;;;;;;13.35;80.15;97689.97;5002858;28;20038;-72
2023/09/28 01:43:12;;;;;;;0.10;0.10;;;;;;;13.36;80.04;97680.06;4986859;28;20444;-73
2023/09/28 01:45:38;;;;;;;0.10;0.10;;;;;;;13.45;80.50;97682.31;5000022;28;20117;-73
2023/09/28 01:48:07;;;;;;;0.20;0.20;;;;;;;13.53;80.06;97682.09;4990665;28;20140;-73
2023/09/28 01:50:34;;;;;;;0.10;0.10;;;;;;;13.59;80.40;97681.25;4985543;28;20139;-70
2023/09/28 01:53:02;;;;;;;0.20;0.20;;;;;;;13.73;80.44;97676.66;5002525;28;20550;-72
2023/09/28 01:55:29;;;;;;;0.13;0.13;;;;;;;13.81;79.99;97675.56;4984777;28;20413;-71
2023/09/28 01:58:00;;;;;;;0.20;0.20;;;;;;;13.89;79.79;97675.34;5000902;28;20046;-72
2023/09/28 02:00:28;;;;;;;0.20;0.20;;;;;;;13.91;79.10;97673.28;4990287;28;20157;-71
2023/09/28 02:02:58;;;;;;;0.17;0.17;;;;;;;13.92;79.02;97665.00;4987566;28;20034;-73
2023/09/28 02:05:25;;;;;;;0.10;0.10;;;;;;;13.91;78.40;97657.19;4984859;28;20042;-75
2023/09/28 02:07:54;;;;;;;0.13;0.13;;;;;;;13.81;78.70;97664.84;4984887;28;20030;-74
2023/09/28 02:10:21;;;;;;;0.17;0.17;;;;;;;13.85;78.64;97663.38;5005403;28;20043;-72
2023/09/28 02:12:50;;;;;;;0.17;0.17;;;;;;;13.83;78.59;97662.78;5002827;28;20134;-72
2023/09/28 02:15:18;;;;;;;0.20;0.20;;;;;;;13.72;78.88;97668.81;4983049;28;20125;-72
2023/09/28 02:17:46;;;;;;;0.20;0.20;;;;;;;13.51;78.70;97672.59;4984898;28;20485;-72
2023/09/28 02:20:15;;;;;;;0.20;0.20;;;;;;;13.45;79.12;97665.41;4985960;28;20038;-71
2023/09/28 02:22:44;;;;;;;0.20;0.20;;;;;;;13.47;79.32;97671.38;4999206;28;20053;-76
2023/09/28 02:25:15;;;;;;;0.20;0.20;;;;;;;13.45;79.74;97668.91;4999733;28;20065;-72
2023/09/28 02:27:43;;;;;;;0.13;0.13;;;;;;;13.52;79.63;97663.53;4983944;28;20070;-71
2023/09/28 02:30:14;;;;;;;0.10;0.10;;;;;;;13.61;79.36;97667.59;4983854;28;20329;-71
2023/09/28 02:32:43;;;;;;;0.20;0.20;;;;;;;13.65;79.07;97652.75;4999819;28;20165;-73
2023/09/28 02:35:13;;;;;;;0.45;0.45;;;;;;;13.65;78.74;97658.13;4984842;28;20539;-75
2023/09/28 02:37:41;;;;;;;0.17;0.17;;;;;;;13.49;78.81;97655.91;4989606;28;20086;-75
2023/09/28 02:40:10;;;;;;;0.20;0.20;;;;;;;13.50;78.92;97662.91;4984969;28;20093;-73
2023/09/28 02:42:37;;;;;;;0.35;0.35;;;;;;;13.50;78.72;97669.09;4983432;28;20129;-73
2023/09/28 02:45:11;;;;;;;0.20;0.20;;;;;;;13.41;78.32;97665.00;4984740;28;20042;-76
2023/09/28 02:47:41;;;;;;;0.20;0.20;;;;;;;13.41;79.02;97672.22;4985072;28;20046;-74
2023/09/28 02:50:11;;;;;;;0.15;0.15;;;;;;;13.31;78.99;97675.34;4986358;28;20046;-73
2023/09/28 02:52:41;;;;;;;0.20;0.20;;;;;;;13.32;78.49;97684.19;4989086;28;20102;-74
2023/09/28 02:55:10;;;;;;;0.13;0.13;;;;;;;13.22;78.78;97680.09;5001135;28;20635;-74
2023/09/28 02:57:38;;;;;;;0.30;0.30;;;;;;;13.25;78.82;97688.75;5009003;28;20540;-76
2023/09/28 03:00:15;;;;;;;0.20;0.20;;;;;;;13.13;79.03;97685.84;4989636;28;20049;-77
2023/09/28 03:02:45;;;;;;;0.20;0.20;;;;;;;13.14;79.22;97693.72;4984321;28;20133;-74
2023/09/28 03:05:16;;;;;;;0.20;0.20;;;;;;;13.09;79.33;97692.66;4983462;28;20077;-73
2023/09/28 03:07:45;;;;;;;0.17;0.17;;;;;;;13.06;79.53;97696.59;5001367;28;20442;-75
2023/09/28 03:10:12;;;;;;;0.10;0.10;;;;;;;13.06;80.44;97690.41;4984846;28;20039;-75
2023/09/28 03:12:40;;;;;;;0.20;0.20;;;;;;;12.95;81.16;97694.53;4983564;28;20125;-74
2023/09/28 03:15:10;;;;;;;0.10;0.10;;;;;;;12.98;80.99;97682.59;4984761;28;20034;-73
2023/09/28 03:17:39;;;;;;;0.20;0.20;;;;;;;12.88;81.49;97688.34;4991049;28;20065;-72
2023/09/28 03:20:09;;;;;;;0.20;0.20;;;;;;;12.79;81.86;97692.25;4988919;28;20046;-75
2023/09/28 03:22:39;;;;;;;0.20;0.20;;;;;;;12.77;82.32;97687.09;4985956;28;20043;-76
2023/09/28 03:25:10;;;;;;;0.20;0.20;;;;;;;12.75;82.51;97686.50;4983970;28;20153;-73
2023/09/28 03:27:38;;;;;;;0.20;0.20;;;;;;;12.79;82.20;97682.38;4983678;28;20097;-73
2023/09/28 03:30:10;;;;;;;0.13;0.13;;;;;;;12.95;82.21;97683.00;4982435;28;20433;-73
2023/09/28 03:32:38;;;;;;;0.10;0.10;;;;;;;13.16;81.13;97680.94;4982254;28;20141;-72
2023/09/28 03:35:07;;;;;;;0.30;0.30;;;;;;;13.30;80.37;97681.72;4983748;28;20412;-72
2023/09/28 03:37:35;;;;;;;0.22;0.22;;;;;;;13.41;79.79;97680.25;4983316;28;20050;-73
2023/09/28 03:40:10;;;;;;;0.10;0.10;;;;;;;13.36;79.70;97685.44;4984764;28;20039;-72
2023/09/28 03:42:39;;;;;;;0.30;0.30;;;;;;;13.28;79.98;97677.63;4983256;28;20125;-75
2023/09/28 03:45:10;;;;;;;0.17;0.17;;;;;;;13.29;80.22;97687.31;4985708;28;20046;-74
2023/09/28 03:47:39;;;;;;;0.20;0.20;;;;;;;13.29;79.89;97688.13;4986055;28;20591;-72
2023/09/28 03:50:10;;;;;;;0.10;0.10;;;;;;;13.09;80.10;97684.63;4989482;28;20074;-74
2023/09/28 03:52:38;;;;;;;0.20;0.20;;;;;;;13.02;80.80;97679.28;4986804;28;20113;-72
2023/09/28 03:55:10;;;;;;;0.20;0.20;;;;;;;13.11;80.51;97682.56;4986413;28;20048;-72
2023/09/28 03:57:39;;;;;;;0.25;0.25;;;;;;;12.94;79.97;97676.81;4974355;28;20046;-75
2023/09/28 04:00:09;;;;;;;0.30;0.30;;;;;;;12.81;80.41;97682.16;4978116;28;20506;-72
2023/09/28 04:02:39;;;;;;;0.30;0.30;;;;;;;12.76;80.67;97685.50;4985027;28;20495;-72
2023/09/28 04:05:08;;;;;;;0.20;0.20;;;;;;;12.78;80.46;97682.56;4982818;28;20042;-72
2023/09/28 04:07:37;;;;;;;0.20;0.20;;;;;;;12.73;80.48;97685.88;4981770;28;20059;-72
2023/09/28 04:10:06;;;;;;;0.10;0.10;;;;;;;12.58;80.73;97679.06;4985989;28;20886;-73
2023/09/28 04:12:36;;;;;;;0.17;0.10;;;;;;;12.61;81.20;97686.69;4993740;28;20046;-74
2023/09/28 04:15:07;;;;;;;0.30;0.30;;;;;;;12.42;82.12;97688.34;4984884;28;20050;-73
2023/09/28 04:17:36;;;;;;;0.20;0.20;;;;;;;12.58;81.67;97684.41;4977270;28;20078;-73
2023/09/28 04:20:09;;;;;;;0.13;0.13;;;;;;;12.71;81.25;97682.59;4981602;28;20049;-73
2023/09/28 04:22:37;;;;;;;0.20;0.20;;;;;;;12.74;80.76;97682.19;4980810;28;20078;-73
2023/09/28 04:25:06;;;;;;;0.10;0.10;;;;;;;12.71;80.38;97687.13;4978889;28;20038;-72
2023/09/28 04:27:34;;;;;;;0.10;0.10;;;;;;;12.60;80.97;97685.03;4977387;28;20047;-73
2023/09/28 04:30:03;;;;;;;0.30;0.30;;;;;;;12.60;81.75;97679.69;4983092;28;20118;-72
2023/09/28 04:32:31;;;;;;;0.20;0.20;;;;;;;12.68;81.56;97680.31;4984738;28;20049;-73
2023/09/28 04:34:59;;;;;;;0.20;0.20;;;;;;;12.53;82.13;97693.09;4986839;28;20039;-73
2023/09/28 04:37:27;;;;;;;0.20;0.20;;;;;;;12.55;81.83;97698.25;4985514;28;20141;-73
2023/09/28 04:39:55;;;;;;;0.20;0.20;;;;;;;12.56;81.67;97706.06;4990391;28;20038;-73
2023/09/28 04:42:23;;;;;;;0.10;0.10;;;;;;;12.59;81.43;97710.16;4986059;28;20050;-73
2023/09/28 04:44:50;;;;;;;0.20;0.20;;;;;;;12.50;80.67;97707.69;4978636;28;20051;-73
2023/09/28 04:47:19;;;;;;;0.20;0.20;;;;;;;12.44;81.10;97707.69;4980672;28;20433;-73
2023/09/28 04:49:48;;;;;;;0.10;0.10;;;;;;;12.56;81.61;97715.97;4991627;28;20050;-73
2023/09/28 04:52:17;;;;;;;0.25;0.25;;;;;;;12.69;81.02;97711.41;4998020;28;20050;-73
2023/09/28 04:54:45;;;;;;;0.20;0.20;;;;;;;12.80;80.99;97712.66;4985297;28;20042;-73
2023/09/28 04:57:12;;;;;;;0.20;0.20;;;;;;;12.87;80.13;97716.19;4979565;28;20079;-73
2023/09/28 04:59:40;;;;;;;0.20;0.20;;;;;;;12.81;79.44;97712.47;4976109;28;20133;-73
2023/09/28 05:02:09;;;;;;;0.20;0.20;;;;;;;12.81;79.95;97706.28;4982578;28;20042;-73
2023/09/28 05:04:38;;;;;;;0.30;0.25;;;;;;;12.78;80.22;97704.81;4977802;28;20487;-74
2023/09/28 05:07:06;;;;;;;0.20;0.20;;;;;;;12.79;79.95;97706.47;4978352;28;20042;-74
2023/09/28 05:09:35;;;;;;;0.20;0.20;;;;;;;12.88;79.73;97710.59;4979250;28;20131;-73
2023/09/28 05:12:03;;;;;;;0.20;0.20;;;;;;;12.84;79.61;97705.88;4979765;28;20074;-74
2023/09/28 05:14:32;;;;;;;0.30;0.30;;;;;;;12.82;79.74;97708.75;4984956;28;20551;-74
2023/09/28 05:17:00;;;;;;;0.30;0.30;;;;;;;12.75;80.95;97725.88;4982934;28;20118;-73
2023/09/28 05:19:30;;;;;;;0.13;0.13;;;;;;;12.74;82.48;97718.84;4983098;28;20057;-73
2023/09/28 05:21:59;;;;;;;0.17;0.17;;;;;;;12.82;82.30;97718.66;4985144;28;20046;-74
2023/09/28 05:24:27;;;;;;;0.22;0.22;;;;;;;12.81;81.27;97715.13;4978397;28;20050;-74
2023/09/28 05:26:55;;;;;;;0.10;0.10;;;;;;;12.79;81.20;97725.22;4980047;28;20077;-73
2023/09/28 05:29:22;;;;;;;0.20;0.20;;;;;;;12.79;80.69;97721.72;4973182;28;20057;-74
2023/09/28 05:31:50;;;;;;;0.20;0.20;;;;;;;12.85;80.67;97726.28;4977681;28;20416;-74
2023/09/28 05:34:18;;;;;;;0.20;0.20;;;;;;;12.91;81.00;97724.63;4976741;28;20046;-74
2023/09/28 05:36:47;;;;;;;0.15;0.15;;;;;;;12.85;82.73;97728.97;4978589;28;20563;-74
2023/09/28 05:39:17;;;;;;;0.22;0.22;;;;;;;12.83;83.02;97729.16;4975713;28;20408;-74
2023/09/28 05:41:45;;;;;;;1.20;0.20;;;;;;;12.87;83.77;97729.59;4991557;28;20138;-74
2023/09/28 05:44:14;;;;;;;0.10;0.10;;;;;;;12.88;83.02;97718.63;4980858;28;20045;-74
2023/09/28 05:46:42;;;;;;;0.30;0.30;;;;;;;12.95;82.65;97725.88;4978917;28;20054;-75
2023/09/28 05:49:10;;;;;;;0.30;0.30;;;;;;;12.99;82.06;97717.19;4977686;28;20119;-74
2023/09/28 05:51:38;;;;;;;0.60;0.32;;;;;;;13.09;81.90;97722.13;4977825;28;20049;-74
2023/09/28 05:54:06;;;;;;;0.28;0.20;;;;;;;13.14;82.30;97730.41;4987558;28;20525;-74
2023/09/28 05:56:35;;;;;;;0.30;0.30;;;;;;;13.02;82.76;97730.19;4978844;28;20047;-74
2023/09/28 05:59:03;;;;;;;0.22;0.22;;;;;;;13.17;84.70;97732.69;4981444;28;20047;-74
2023/09/28 06:01:31;;;;;;;0.20;0.20;;;;;;;13.25;84.82;97734.34;4982157;28;20078;-74
2023/09/28 06:03:58;;;;;;;0.10;0.10;;;;;;;13.42;85.66;97746.25;4990727;28;20089;-74
2023/09/28 06:06:27;;;;;;;0.10;0.10;;;;;;;13.55;86.28;97744.38;4981989;28;20058;-74
2023/09/28 06:08:54;;;;;;;0.20;0.20;;;;;;;13.68;86.34;97753.44;4986133;28;20122;-74
2023/09/28 06:11:23;;;;;;;0.15;0.15;;;;;;;13.76;86.92;97755.88;4985583;28;20120;-75
2023/09/28 06:13:52;;;;;;;0.20;0.20;;;;;;;13.89;85.59;97754.00;4987897;28;20080;-75
2023/09/28 06:16:36;;;;;;;0.20;0.20;;;;;;;13.93;84.11;97751.69;4982781;28;20086;-75
2023/09/28 06:19:04;;;;;;;0.30;0.30;;;;;;;13.95;83.79;97749.63;4987653;28;20069;-74
2023/09/28 06:21:32;;;;;;;0.20;0.20;;;;;;;13.90;83.65;97752.97;4988416;28;20124;-75
2023/09/28 06:24:00;;;;;;;0.20;0.20;;;;;;;13.94;83.99;97750.66;4992149;28;20049;-74
2023/09/28 06:26:28;;;;;;;0.30;0.30;;;;;;;14.03;83.88;97752.06;4998397;28;20050;-74
2023/09/28 06:29:11;;;;;;;0.15;0.15;;;;;;;14.11;83.62;97751.84;4983795;28;20034;-74
2023/09/28 06:31:39;;;;;;;0.20;0.20;;;;;;;14.20;84.07;97753.25;4992496;28;20050;-75
2023/09/28 06:34:07;;;;;;;0.20;0.20;;;;;;;14.23;83.88;97760.84;4997388;28;20174;-75
2023/09/28 06:36:34;;;;;;;0.20;0.20;;;;;;;14.31;84.23;97765.19;4995361;28;20069;-75
2023/09/28 06:39:06;;;;;;;0.20;0.20;;;;;;;14.37;83.97;97767.00;4996652;28;20050;-75
2023/09/28 06:41:33;;;;;;;0.20;0.20;;;;;;;14.40;84.54;97763.09;4985900;28;20177;-75
2023/09/28 06:44:01;;;;;;;0.20;0.20;;;;;;;14.47;84.52;97763.88;4988844;28;20053;-75
2023/09/28 06:46:30;;;;;;;0.28;0.28;;;;;;;14.55;84.28;97771.69;4994911;28;20454;-74
2023/09/28 06:48:59;;;;;;;0.20;0.20;;;;;;;14.61;84.42;97765.47;4996570;28;20046;-75
2023/09/28 06:51:27;;;;;;;0.10;0.10;;;;;;;14.75;83.83;97761.63;4991718;28;20050;-75
2023/09/28 06:53:57;;;;;;;0.10;0.10;;;;;;;14.74;84.01;97757.31;4989500;28;20034;-76
2023/09/28 06:56:26;;;;;;;0.20;0.20;;;;;;;14.79;83.97;97762.03;4994994;28;20102;-75
2023/09/28 06:58:54;;;;;;;0.10;0.10;;;;;;;14.79;84.31;97776.28;4988958;28;20051;-75
2023/09/28 07:01:22;;;;;;;0.40;0.40;;;;;;;14.81;84.48;97762.66;4992186;28;20733;-75
2023/09/28 07:03:52;;;;;;;0.20;0.20;;;;;;;14.88;84.45;97764.25;4985508;28;20405;-75
2023/09/28 07:06:22;;;;;;;0.43;0.43;;;;;;;14.91;84.29;97765.69;4993245;28;20436;-75
2023/09/28 07:08:50;;;;;;;1.13;1.13;;;;;;;14.90;84.47;97766.72;4988330;28;20133;-75
2023/09/28 07:11:20;;;;;;;1.08;1.08;;;;;;;15.00;84.11;97762.50;4987259;28;20556;-75
2023/09/28 07:13:47;;;;;;;0.45;0.45;;;;;;;15.11;83.63;97766.34;4992596;28;20074;-75
2023/09/28 07:16:15;;;;;;;0.50;0.40;;;;;;;15.11;83.83;97762.84;4991526;28;20420;-75
2023/09/28 07:18:43;;;;;;;0.20;0.20;;;;;;;15.17;83.73;97761.94;5005955;28;20093;-75
2023/09/28 07:21:12;;;;;;;0.30;0.20;;;;;;;15.25;83.18;97762.50;4982924;28;20047;-75
2023/09/28 07:23:41;;;;;;;0.20;0.20;;;;;;;15.35;82.97;97767.41;4996944;28;20110;-75
2023/09/28 07:26:14;;;;;;;0.20;0.20;;;;;;;15.42;82.67;97762.78;4993098;28;20042;-75
2023/09/28 07:28:42;;;;;;;0.20;0.20;;;;;;;15.43;82.68;97775.19;4983743;28;20039;-75
2023/09/28 07:31:11;;;;;;;0.50;0.20;;;;;;;15.49;83.25;97774.28;4992325;28;20050;-75
2023/09/28 07:33:39;;;;;;;0.20;0.20;;;;;;;15.59;83.21;97779.19;4993856;28;20042;-75
2023/09/28 07:36:07;;;;;;;0.20;0.20;;;;;;;15.64;83.11;97788.25;4990305;28;20515;-74
2023/09/28 07:38:36;;;;;;;0.30;0.30;;;;;;;15.75;83.09;97789.41;4987298;28;20390;-75
2023/09/28 07:41:04;;;;;;;0.22;0.22;;;;;;;15.82;83.36;97786.63;4986174;28;20165;-76
2023/09/28 07:43:32;;;;;;;0.25;0.25;;;;;;;15.91;83.01;97785.28;5001124;28;20532;-76
2023/09/28 07:46:00;;;;;;;0.30;0.30;;;;;;;16.01;82.96;97785.59;4987702;28;20038;-75
2023/09/28 07:48:28;;;;;;;0.20;0.20;;;;;;;16.09;82.27;97785.31;4984502;28;20515;-74
2023/09/28 07:50:56;;;;;;;0.28;0.28;;;;;;;16.15;82.22;97789.78;4984477;28;20512;-76
2023/09/28 07:53:24;;;;;;;0.10;0.10;;;;;;;16.23;82.08;97802.09;4992007;28;20074;-74
2023/09/28 07:55:53;;;;;;;0.20;0.20;;;;;;;16.33;82.27;97813.19;4993314;28;20042;-76
2023/09/28 07:58:22;;;;;;;0.20;0.20;;;;;;;16.43;82.34;97808.06;4995472;28;20507;-74
2023/09/28 08:00:54;;;;;;;0.40;0.30;;;;;;;16.56;82.46;97815.19;4991792;28;20050;-74
2023/09/28 08:03:22;;;;;;;0.30;0.30;;;;;;;16.69;82.37;97810.47;4994088;28;20140;-76
2023/09/28 08:05:50;;;;;;;0.30;0.30;;;;;;;16.82;82.26;97817.53;4983239;28;20912;-74
2023/09/28 08:08:18;;;;;;;0.10;0.10;;;;;;;16.94;81.58;97821.09;4989789;28;20043;-74
2023/09/28 08:10:47;;;;;;;0.20;0.20;;;;;;;17.09;81.31;97816.13;4984373;28;20100;-73
2023/09/28 08:13:17;;;;;;;0.10;0.10;;;;;;;17.14;80.88;97813.53;4980954;28;20048;-77
2023/09/28 08:15:45;;;;;;;0.20;0.20;;;;;;;17.22;81.13;97812.41;4989193;28;20447;-74
2023/09/28 08:18:14;;;;;;;0.32;0.32;;;;;;;17.31;80.61;97812.88;4992255;28;20046;-74
2023/09/28 08:20:43;;;;;;;0.13;0.13;;;;;;;17.44;80.57;97815.38;4992593;28;20069;-76
2023/09/28 08:23:26;;;;;;;;;;;;;;;17.51;80.14;97816.91;4988787;28;20129;-74
2023/09/28 08:25:54;;;;;;;0.20;0.20;;;;;;;17.67;79.89;97814.59;4990769;28;20060;-76
2023/09/28 08:28:24;;;;;;;0.20;0.20;;;;;;;17.70;79.50;97812.25;4995305;28;20081;-76
2023/09/28 08:30:53;;;;;;;0.10;0.10;;;;;;;17.73;79.30;97814.50;4992380;28;20047;-74
2023/09/28 08:33:25;;;;;;;0.20;0.20;;;;;;;17.83;79.10;97816.59;4988755;28;20050;-73
2023/09/28 08:35:52;;;;;;;0.20;0.20;;;;;;;17.88;78.83;97825.63;4991190;28;20038;-74
2023/09/28 08:38:21;;;;;;;0.20;0.20;;;;;;;18.00;78.29;97814.00;4999306;28;20108;-73
2023/09/28 08:40:49;;;;;;;0.20;0.20;;;;;;;18.08;78.07;97816.31;4990225;28;20070;-74
2023/09/28 08:43:21;;;;;;;0.20;0.20;;;;;;;18.16;77.54;97808.69;4989839;28;20046;-74
2023/09/28 08:45:52;;;;;;;0.30;0.22;;;;;;;18.25;77.30;97807.28;4991587;28;20039;-74
2023/09/28 08:48:22;;;;;;;0.20;0.20;;;;;;;18.34;77.11;97808.53;4989254;28;20059;-73
2023/09/28 08:50:51;;;;;;;0.10;0.10;;;;;;;18.46;76.76;97807.69;4991792;28;20447;-73
2023/09/28 08:53:20;;;;;;;0.10;0.10;;;;;;;18.46;75.70;97797.69;4994139;28;20046;-74
2023/09/28 08:55:48;;;;;;;0.20;0.20;;;;;;;18.54;76.30;97804.59;4985603;28;20047;-75
2023/09/28 08:58:16;;;;;;;0.13;0.13;;;;;;;18.62;75.83;97796.13;4984890;28;20050;-73
2023/09/28 09:00:44;;;;;;;0.22;0.22;;;;;;;18.65;75.43;97804.59;5003378;28;20128;-73
2023/09/28 09:03:13;;;;;;;0.20;0.20;;;;;;;18.74;75.53;97802.31;4991273;28;20510;-73
2023/09/28 09:05:41;;;;;;;0.10;0.10;;;;;;;18.83;75.10;97802.75;4983797;28;20048;-73
2023/09/28 09:08:10;;;;;;;0.20;0.20;;;;;;;18.94;74.36;97804.59;4989872;28;20038;-74
2023/09/28 09:10:39;;;;;;;0.13;0.13;;;;;;;19.00;74.75;97801.72;4998670;28;20053;-77
2023/09/28 09:13:15;;;;;;;0.15;0.15;;;;;;;19.12;73.98;97790.84;5001070;28;20471;-75
2023/09/28 09:15:43;;;;;;;0.20;0.20;;;;;;;19.23;73.14;97791.81;4989346;28;20050;-73
2023/09/28 09:18:18;;;;;;;0.10;0.10;;;;;;;19.33;72.58;97798.22;4991524;28;20130;-73
2023/09/28 09:20:48;;;;;;;0.20;0.20;;;;;;;19.37;72.26;97798.56;4983316;28;20050;-73
2023/09/28 09:23:17;;;;;;;0.10;0.10;;;;;;;19.46;72.28;97804.41;4986154;28;20046;-73
2023/09/28 09:25:47;;;;;;;0.20;0.20;;;;;;;19.59;71.14;97799.50;4989037;28;20500;-73
2023/09/28 09:28:27;;;;;;;0.10;0.10;;;;;;;19.71;70.55;97796.72;4983726;28;20492;-73
2023/09/28 09:30:55;;;;;;;0.30;0.20;;;;;;;19.78;70.73;97794.66;4982734;28;20157;-73
2023/09/28 09:33:24;;;;;;;0.10;0.10;;;;;;;19.83;70.24;97794.69;4975751;28;20066;-73
2023/09/28 09:35:52;;;;;;;0.20;0.20;;;;;;;20.01;68.96;97794.44;4986920;28;20056;-73
2023/09/28 09:38:23;;;;;;;0.10;0.10;;;;;;;20.02;69.19;97790.66;4984455;28;20092;-73
2023/09/28 09:40:58;;;;;;;0.30;0.30;;;;;;;20.10;68.47;97778.56;4986573;28;20412;-73
2023/09/28 09:43:30;;;;;;;0.20;0.20;;;;;;;20.21;67.94;97782.22;4978758;28;20047;-73
2023/09/28 09:45:58;;;;;;;0.05;0.05;;;;;;;20.30;67.18;97776.13;4985827;28;20038;-73
2023/09/28 09:48:27;;;;;;;0.13;0.13;;;;;;;20.36;66.36;97785.16;4988429;28;20049;-73
2023/09/28 09:50:55;;;;;;;0.20;0.20;;;;;;;20.44;64.51;97788.25;4991001;28;20385;-74
2023/09/28 09:53:24;;;;;;;0.20;0.20;;;;;;;20.56;63.47;97790.81;4992128;28;20046;-73
2023/09/28 09:55:54;;;;;;;0.10;0.10;;;;;;;20.70;63.38;97785.81;4987698;28;20031;-73
2023/09/28 09:58:29;;;;;;;0.13;0.13;;;;;;;20.74;62.90;97781.53;4983750;28;20046;-73
2023/09/28 10:01:00;;;;;;;0.20;0.20;;;;;;;20.73;65.06;97783.44;4986365;28;20046;-74
2023/09/28 10:03:30;;;;;;;0.15;0.10;;;;;;;20.70;63.70;97783.94;4987422;28;20065;-75
2023/09/28 10:05:59;;;;;;;0.00;0.00;;;;;;;20.73;63.14;97782.59;4995712;28;20070;-75
2023/09/28 10:08:28;;;;;;;0.17;0.17;;;;;;;20.75;63.23;97781.28;4987757;28;20049;-73
2023/09/28 10:10:56;;;;;;;0.20;0.20;;;;;;;20.82;63.51;97790.03;4987269;28;20476;-74
2023/09/28 10:13:24;;;;;;;0.28;0.17;;;;;;;20.87;61.67;97792.78;4990703;28;20049;-75
2023/09/28 10:15:52;;;;;;;0.10;0.10;;;;;;;21.06;60.28;97790.56;4994554;28;20068;-72
2023/09/28 10:18:20;;;;;;;0.10;0.10;;;;;;;21.19;59.58;97787.44;4983183;28;20042;-74
2023/09/28 10:20:49;;;;;;;0.10;0.10;;;;;;;21.23;61.41;97780.41;4993073;28;20527;-72
2023/09/28 10:23:23;;;;;;;0.30;0.30;;;;;;;21.25;61.09;97774.75;4981850;28;20129;-72
2023/09/28 10:25:57;;;;;;;0.10;0.10;;;;;;;21.32;61.71;97783.47;4993760;28;20050;-73
2023/09/28 10:28:25;;;;;;;0.30;0.20;;;;;;;21.44;58.59;97780.59;4982275;28;20061;-72
2023/09/28 10:31:15;;;;;;;0.20;0.20;;;;;;;21.48;59.62;97776.28;4992191;28;20085;-72
2023/09/28 10:33:57;;;;;;;0.10;0.10;;;;;;;21.52;59.77;97777.38;4995536;28;20050;-72
2023/09/28 10:36:27;;;;;;;0.10;0.10;;;;;;;21.55;59.60;97774.97;4991252;28;20109;-72
2023/09/28 10:39:11;;;;;;;0.10;0.10;;;;;;;21.61;56.95;97778.53;4989099;28;20447;-72
2023/09/28 10:41:39;;;;;;;0.10;0.10;;;;;;;21.73;57.23;97768.31;4980275;28;20047;-72
2023/09/28 10:44:17;;;;;;;0.10;0.10;;;;;;;21.82;55.86;97772.16;4998376;28;20431;-73
2023/09/28 10:46:47;;;;;;;0.10;0.10;;;;;;;22.00;54.07;97762.00;4992490;28;20121;-72
2023/09/28 10:49:16;;;;;;;0.10;0.10;;;;;;;22.12;54.25;97765.28;4987166;28;20049;-73
2023/09/28 10:51:45;;;;;;;0.10;0.10;;;;;;;22.23;52.79;97770.50;4993615;28;20074;-72
2023/09/28 10:54:13;;;;;;;0.10;0.10;;;;;;;22.36;51.16;97771.94;4988879;28;20042;-73
2023/09/28 10:56:41;;;;;;;0.10;0.10;;;;;;;22.53;50.88;97769.03;4994017;28;20137;-72
2023/09/28 10:59:11;;;;;;;0.10;0.10;;;;;;;22.58;51.98;97758.97;4996280;28;20125;-72
2023/09/28 11:01:40;;;;;;;0.10;0.10;;;;;;;22.59;51.80;97776.09;4997655;28;20050;-72
2023/09/28 11:04:09;;;;;;;0.10;0.10;;;;;;;22.57;52.12;97773.66;4988885;28;20488;-72
2023/09/28 11:06:38;;;;;;;0.10;0.10;;;;;;;22.63;50.61;97777.22;4983069;28;20047;-72
2023/09/28 11:09:09;;;;;;;0.10;0.03;;;;;;;22.69;50.87;97782.41;4985133;28;20081;-72
2023/09/28 11:11:38;;;;;;;0.10;0.10;;;;;;;22.77;48.30;97786.53;4990267;28;20121;-72
2023/09/28 11:14:06;;;;;;;0.10;0.10;;;;;;;22.90;46.77;97782.47;4986146;28;20067;-73
2023/09/28 11:16:38;;;;;;;0.10;0.10;;;;;;;23.16;46.97;97786.06;4993550;28;20047;-73
2023/09/28 11:19:06;;;;;;;0.10;0.10;;;;;;;23.45;45.47;97767.28;4987854;28;20045;-73
2023/09/28 11:21:34;;;;;;;0.00;0.00;;;;;;;23.64;45.51;97765.66;4987651;28;20051;-73
2023/09/28 11:24:03;;;;;;;0.10;0.10;;;;;;;23.80;46.14;97759.09;4990103;28;20125;-73
2023/09/28 11:26:33;;;;;;;0.10;0.10;;;;;;;24.02;45.08;97756.84;4998526;28;20415;-73
2023/09/28 11:29:01;;;;;;;0.10;0.10;;;;;;;24.18;43.67;97746.72;4985457;28;20035;-73
2023/09/28 11:31:35;;;;;;;0.10;0.10;;;;;;;24.32;43.35;97755.97;4984934;28;20152;-72
2023/09/28 11:34:03;;;;;;;0.10;0.10;;;;;;;24.48;43.00;97757.56;4982446;28;20093;-76
2023/09/28 11:36:31;;;;;;;0.10;0.10;;;;;;;24.66;42.12;97744.34;5006440;28;20077;-72
2023/09/28 11:39:00;;;;;;;0.03;0.03;;;;;;;24.85;40.06;97748.88;4983867;28;20077;-72
2023/09/28 11:41:28;;;;;;;0.10;0.10;;;;;;;25.00;42.89;97752.66;4991821;28;20042;-73
2023/09/28 11:43:57;;;;;;;0.10;0.10;;;;;;;25.06;39.27;97752.31;4992977;28;20038;-73